createdAt,value
2019-05-02T00:00:32.713Z,17.40
2019-05-02T00:03:35.902Z,17.45
2019-05-02T00:06:37.988Z,17.42
2019-05-02T00:09:47.190Z,17.77
2019-05-02T00:12:44.466Z,17.45
2019-05-02T00:15:47.650Z,17.90
2019-05-02T00:18:49.234Z,17.90
2019-05-02T00:21:50.515Z,17.95
2019-05-02T00:24:51.823Z,18.52
2019-05-02T00:27:53.235Z,17.10
2019-05-02T00:30:56.201Z,18.37
2019-05-02T00:33:57.498Z,17.35
2019-05-02T00:36:58.787Z,16.23
2019-05-02T00:40:25.284Z,16.05
2019-05-02T00:43:23.213Z,16.85
2019-05-02T00:46:24.709Z,16.40
2019-05-02T00:49:25.994Z,16.65
2019-05-02T00:52:27.764Z,16.62
2019-05-02T00:55:33.768Z,15.45
2019-05-02T00:58:33.112Z,15.30
2019-05-02T01:01:42.405Z,15.95
2019-05-02T01:04:45.774Z,16.00
2019-05-02T01:07:47.053Z,16.57
2019-05-02T01:10:52.162Z,16.17
2019-05-02T01:13:55.749Z,16.62
2019-05-02T01:16:56.243Z,16.02
2019-05-02T01:19:57.575Z,16.82
2019-05-02T01:22:59.281Z,15.00
2019-05-02T01:26:00.557Z,16.62
2019-05-02T01:29:12.962Z,15.93
2019-05-02T01:32:17.405Z,14.93
2019-05-02T01:35:27.060Z,16.05
2019-05-02T01:38:31.715Z,16.35
2019-05-02T01:41:32.862Z,16.55
2019-05-02T01:44:36.494Z,16.02
2019-05-02T01:47:37.599Z,16.40
2019-05-02T01:50:38.866Z,15.85
2019-05-02T01:53:40.658Z,16.27
2019-05-02T01:56:41.929Z,16.32
2019-05-02T01:59:43.409Z,17.35
2019-05-02T02:02:44.677Z,16.75
2019-05-02T02:05:47.077Z,17.37
2019-05-02T02:08:48.358Z,17.25
2019-05-02T02:11:49.843Z,16.37
2019-05-02T02:14:53.462Z,16.55
2019-05-02T02:17:54.406Z,17.73
2019-05-02T02:21:14.489Z,17.17
2019-05-02T02:24:25.229Z,17.07
2019-05-02T02:27:27.125Z,17.05
2019-05-02T02:30:28.673Z,17.73
2019-05-02T02:33:29.946Z,17.75
2019-05-02T02:36:34.531Z,17.12
2019-05-02T02:39:34.380Z,18.50
2019-05-02T02:42:35.793Z,17.10
2019-05-02T02:45:41.290Z,18.57
2019-05-02T02:48:42.947Z,18.42
2019-05-02T02:51:44.240Z,17.80
2019-05-02T02:54:45.713Z,18.15
2019-05-02T02:57:46.987Z,18.20
2019-05-02T03:00:49.376Z,18.52
2019-05-02T03:03:50.790Z,19.40
2019-05-02T03:06:54.066Z,19.37
2019-05-02T03:09:59.690Z,18.65
2019-05-02T03:13:21.697Z,19.30
2019-05-02T03:16:22.560Z,20.30
2019-05-02T03:19:24.049Z,19.77
2019-05-02T03:22:25.384Z,19.50
2019-05-02T03:25:49.346Z,20.65
2019-05-02T03:28:30.241Z,21.17
2019-05-02T03:31:31.805Z,20.43
2019-05-02T03:34:47.148Z,21.05
2019-05-02T03:37:36.597Z,21.27
2019-05-02T03:40:39.060Z,21.60
2019-05-02T03:43:41.171Z,22.22
2019-05-02T03:46:42.915Z,22.45
2019-05-02T03:49:48.816Z,20.60
2019-05-02T03:52:47.736Z,21.23
2019-05-02T03:55:49.010Z,22.13
2019-05-02T03:58:55.910Z,21.97
2019-05-02T04:01:53.600Z,22.93
2019-05-02T04:05:00.501Z,23.60
2019-05-02T04:08:00.687Z,24.63
2019-05-02T04:11:16.745Z,24.15
2019-05-02T04:14:36.624Z,25.43
2019-05-02T04:17:21.433Z,24.30
2019-05-02T04:20:22.747Z,25.48
2019-05-02T04:23:27.708Z,27.20
2019-05-02T04:26:27.628Z,27.20
2019-05-02T04:29:31.193Z,27.15
2019-05-02T04:32:32.190Z,26.73
2019-05-02T04:35:34.927Z,28.70
2019-05-02T04:38:44.455Z,29.87
2019-05-02T04:41:42.380Z,28.73
2019-05-02T04:45:07.644Z,28.62
2019-05-02T04:47:54.540Z,31.68
2019-05-02T04:50:51.762Z,28.75
2019-05-02T04:53:53.205Z,27.42
2019-05-02T04:57:14.416Z,26.00
2019-05-02T05:00:19.743Z,27.35
2019-05-02T05:03:21.295Z,29.67
2019-05-02T05:06:22.886Z,28.23
2019-05-02T05:09:24.156Z,27.58
2019-05-02T05:12:27.739Z,29.77
2019-05-02T05:15:38.339Z,29.82
2019-05-02T05:18:32.235Z,29.80
2019-05-02T05:21:33.673Z,30.55
2019-05-02T05:24:42.367Z,29.75
2019-05-02T05:27:43.243Z,27.75
2019-05-02T05:30:45.517Z,29.60
2019-05-02T05:33:47.947Z,30.72
2019-05-02T05:36:49.444Z,27.93
2019-05-02T05:39:52.520Z,28.98
2019-05-02T05:42:54.718Z,27.13
2019-05-02T05:46:09.161Z,26.00
2019-05-02T05:49:00.419Z,26.62
2019-05-02T05:52:03.816Z,24.12
2019-05-02T05:55:05.348Z,23.10
2019-05-02T05:58:14.652Z,22.40
2019-05-02T06:01:10.410Z,23.12
2019-05-02T06:04:13.953Z,19.80
2019-05-02T06:07:17.644Z,20.15
2019-05-02T06:10:19.121Z,20.85
2019-05-02T06:13:20.717Z,18.98
2019-05-02T06:16:22.096Z,18.05
2019-05-02T06:19:23.635Z,18.40
2019-05-02T06:22:25.679Z,18.50
2019-05-02T06:25:34.052Z,19.70
2019-05-02T06:28:31.146Z,19.40
2019-05-02T06:31:32.638Z,17.90
2019-05-02T06:34:38.742Z,18.00
2019-05-02T06:37:40.320Z,15.65
2019-05-02T06:40:44.822Z,17.02
2019-05-02T06:43:46.545Z,16.15
2019-05-02T06:46:47.706Z,16.75
2019-05-02T06:49:49.226Z,17.37
2019-05-02T06:52:51.572Z,17.62
2019-05-02T06:55:53.506Z,18.37
2019-05-02T06:58:55.101Z,17.25
2019-05-02T07:01:58.674Z,18.45
2019-05-02T07:05:00.231Z,17.57
2019-05-02T07:08:06.671Z,15.75
2019-05-02T07:11:06.358Z,14.10
2019-05-02T07:14:13.323Z,15.80
2019-05-02T07:17:32.038Z,14.87
2019-05-02T07:20:35.191Z,13.50
2019-05-02T07:23:36.786Z,14.30
2019-05-02T07:26:38.485Z,14.38
2019-05-02T07:29:40.200Z,14.55
2019-05-02T07:32:41.487Z,14.90
2019-05-02T07:35:42.963Z,14.33
2019-05-02T07:38:44.256Z,14.65
2019-05-02T07:41:46.200Z,14.03
2019-05-02T07:44:48.213Z,13.68
2019-05-02T07:47:50.452Z,15.80
2019-05-02T07:50:52.096Z,14.85
2019-05-02T07:53:55.668Z,15.55
2019-05-02T07:56:57.401Z,14.15
2019-05-02T08:00:00.446Z,11.18
2019-05-02T08:03:04.976Z,9.95
2019-05-02T08:06:06.235Z,9.78
2019-05-02T08:09:09.210Z,11.08
2019-05-02T08:12:11.509Z,9.40
2019-05-02T08:15:15.285Z,8.93
2019-05-02T08:18:17.001Z,9.73
2019-05-02T08:21:18.490Z,10.08
2019-05-02T08:24:20.430Z,9.95
2019-05-02T08:27:24.054Z,9.88
2019-05-02T08:30:27.363Z,9.50
2019-05-02T08:33:34.380Z,8.85
2019-05-02T08:36:32.217Z,9.53
2019-05-02T08:39:35.165Z,10.70
2019-05-02T08:42:37.477Z,8.08
2019-05-02T08:45:39.635Z,6.97
2019-05-02T08:48:43.636Z,6.80
2019-05-02T08:51:45.362Z,6.72
2019-05-02T08:54:46.770Z,6.67
2019-05-02T08:57:48.386Z,7.15
2019-05-02T09:00:49.814Z,7.83
2019-05-02T09:03:56.572Z,7.17
2019-05-02T09:06:58.876Z,7.00
2019-05-02T09:10:00.174Z,7.20
2019-05-02T09:13:02.650Z,7.30
2019-05-02T09:16:06.070Z,6.80
2019-05-02T09:19:07.358Z,5.30
2019-05-02T09:22:13.242Z,5.10
2019-05-02T09:25:12.581Z,5.33
2019-05-02T09:28:17.048Z,5.15
2019-05-02T09:31:17.766Z,4.80
2019-05-02T09:34:22.665Z,4.72
2019-05-02T09:37:22.761Z,4.30
2019-05-02T09:40:24.366Z,5.20
2019-05-02T09:43:29.372Z,4.22
2019-05-02T09:46:28.928Z,4.50
2019-05-02T09:49:32.454Z,4.00
2019-05-02T09:52:39.763Z,4.35
2019-05-02T09:55:42.338Z,5.00
2019-05-02T09:58:42.580Z,5.15
2019-05-02T10:01:43.965Z,5.03
2019-05-02T10:04:45.563Z,5.30
2019-05-02T10:07:48.554Z,4.80
2019-05-02T10:10:52.040Z,5.00
2019-05-02T10:13:55.393Z,4.80
2019-05-02T10:16:57.604Z,5.20
2019-05-02T10:20:01.876Z,4.50
2019-05-02T10:23:03.263Z,5.00
2019-05-02T10:26:05.218Z,4.83
2019-05-02T10:29:07.178Z,4.87
2019-05-02T10:32:15.038Z,4.87
2019-05-02T10:35:13.805Z,5.10
2019-05-02T10:38:19.379Z,4.97
2019-05-02T10:41:19.623Z,4.80
2019-05-02T10:44:22.557Z,5.28
2019-05-02T10:47:24.240Z,5.28
2019-05-02T10:50:27.852Z,5.58
2019-05-02T10:53:29.805Z,5.22
2019-05-02T10:56:32.445Z,4.90
2019-05-02T10:59:34.055Z,4.97
2019-05-02T11:02:46.265Z,4.65
2019-05-02T11:05:49.893Z,4.97
2019-05-02T11:08:52.487Z,4.40
2019-05-02T11:11:55.101Z,4.53
2019-05-02T11:15:10.335Z,4.78
2019-05-02T11:18:12.661Z,4.03
2019-05-02T11:21:14.606Z,5.60
2019-05-02T11:24:16.079Z,5.53
2019-05-02T11:27:17.618Z,4.87
2019-05-02T11:30:24.931Z,4.62
2019-05-02T11:33:22.935Z,4.87
2019-05-02T11:36:27.391Z,4.87
2019-05-02T11:39:35.770Z,4.92
2019-05-02T11:42:32.323Z,5.12
2019-05-02T11:45:34.338Z,4.87
2019-05-02T11:48:35.626Z,5.00
2019-05-02T11:51:37.395Z,5.08
2019-05-02T11:54:39.212Z,6.58
2019-05-02T11:57:42.575Z,6.05
2019-05-02T12:00:49.333Z,5.70
2019-05-02T12:03:49.573Z,5.50
2019-05-02T12:07:00.921Z,6.03
2019-05-02T12:09:57.020Z,6.00
2019-05-02T12:12:58.803Z,6.15
2019-05-02T12:16:00.291Z,5.53
2019-05-02T12:19:11.762Z,5.30
2019-05-02T12:22:11.968Z,6.22
2019-05-02T12:25:12.460Z,5.87
2019-05-02T12:28:13.924Z,6.03
2019-05-02T12:31:27.858Z,6.08
2019-05-02T12:34:29.435Z,6.47
2019-05-02T12:37:32.618Z,5.95
2019-05-02T12:40:34.062Z,6.33
2019-05-02T12:43:35.444Z,6.25
2019-05-02T12:46:36.859Z,5.65
2019-05-02T12:49:38.443Z,5.70
2019-05-02T12:52:39.833Z,6.22
2019-05-02T12:55:42.126Z,5.97
2019-05-02T12:58:43.630Z,6.42
2019-05-02T13:01:45.129Z,5.90
2019-05-02T13:04:46.804Z,6.22
2019-05-02T13:07:50.381Z,5.80
2019-05-02T13:11:06.646Z,6.25
2019-05-02T13:14:15.916Z,6.55
2019-05-02T13:17:11.860Z,6.60
2019-05-02T13:20:14.749Z,7.40
2019-05-02T13:23:22.444Z,7.47
2019-05-02T13:26:27.140Z,6.87
2019-05-02T13:29:26.988Z,6.97
2019-05-02T13:32:33.382Z,7.15
2019-05-02T13:35:36.590Z,6.80
2019-05-02T13:38:37.940Z,7.25
2019-05-02T13:41:39.352Z,7.55
2019-05-02T13:44:48.681Z,7.55
2019-05-02T13:47:51.895Z,6.50
2019-05-02T13:50:53.501Z,6.97
2019-05-02T13:53:56.691Z,6.90
2019-05-02T13:56:58.285Z,7.50
2019-05-02T13:59:59.553Z,7.00
2019-05-02T14:03:02.861Z,6.10
2019-05-02T14:06:04.237Z,6.20
2019-05-02T14:09:16.978Z,6.10
2019-05-02T14:12:19.447Z,6.12
2019-05-02T14:15:22.851Z,6.30
2019-05-02T14:18:29.132Z,6.42
2019-05-02T14:21:27.525Z,6.65
2019-05-02T14:24:28.929Z,6.78
2019-05-02T14:27:32.052Z,6.72
2019-05-02T14:30:39.367Z,5.83
2019-05-02T14:33:42.301Z,7.40
2019-05-02T14:36:44.035Z,6.72
2019-05-02T14:39:47.228Z,6.25
2019-05-02T14:42:48.505Z,10.95
2019-05-02T14:45:50.922Z,6.12
2019-05-02T14:48:53.198Z,5.80
2019-05-02T14:51:57.192Z,6.37
2019-05-02T14:54:57.970Z,5.40
2019-05-02T14:58:02.172Z,5.40
2019-05-02T15:01:03.290Z,4.97
2019-05-02T15:04:08.257Z,5.12
2019-05-02T15:07:08.568Z,5.10
2019-05-02T15:10:10.145Z,5.40
2019-05-02T15:13:36.399Z,5.00
2019-05-02T15:16:42.262Z,5.10
2019-05-02T15:19:39.542Z,6.08
2019-05-02T15:22:42.509Z,5.65
2019-05-02T15:25:47.119Z,6.42
2019-05-02T15:28:47.189Z,5.87
2019-05-02T15:32:13.653Z,7.08
2019-05-02T15:35:31.941Z,6.45
2019-05-02T15:38:37.271Z,5.92
2019-05-02T15:41:39.903Z,6.67
2019-05-02T15:44:40.154Z,5.87
2019-05-02T15:47:43.041Z,5.78
2019-05-02T15:50:50.113Z,7.83
2019-05-02T15:54:05.991Z,6.10
2019-05-02T15:57:05.894Z,5.58
2019-05-02T16:00:09.163Z,7.50
2019-05-02T16:03:12.218Z,10.48
2019-05-02T16:06:16.335Z,12.60
2019-05-02T16:09:16.870Z,6.20
2019-05-02T16:12:18.266Z,11.75
2019-05-02T16:15:24.645Z,7.37
2019-05-02T16:18:23.646Z,6.22
2019-05-02T16:21:42.695Z,7.22
2019-05-02T16:24:48.781Z,7.87
2019-05-02T16:27:48.591Z,7.95
2019-05-02T16:30:52.607Z,7.67
2019-05-02T16:33:57.416Z,8.30
2019-05-02T16:37:13.288Z,9.63
2019-05-02T16:40:14.677Z,9.10
2019-05-02T16:43:16.065Z,7.83
2019-05-02T16:46:18.239Z,7.50
2019-05-02T16:49:19.561Z,8.28
2019-05-02T16:52:22.145Z,10.08
2019-05-02T16:55:26.540Z,42.55
2019-05-02T16:58:27.306Z,53.83
2019-05-02T17:01:28.685Z,38.48
2019-05-02T17:04:31.942Z,69.72
2019-05-02T17:07:42.901Z,21.30
2019-05-02T17:10:47.247Z,24.90
2019-05-02T17:13:49.513Z,13.03
2019-05-02T17:16:52.343Z,14.15
2019-05-02T17:19:54.624Z,12.85
2019-05-02T17:23:01.866Z,13.10
2019-05-02T17:26:01.456Z,13.88
2019-05-02T17:29:03.644Z,13.75
2019-05-02T17:32:05.335Z,14.60
2019-05-02T17:35:09.930Z,14.55
2019-05-02T17:38:12.023Z,14.43
2019-05-02T17:41:13.962Z,13.78
2019-05-02T17:44:18.525Z,14.93
2019-05-02T17:47:19.396Z,15.60
2019-05-02T17:50:22.824Z,16.25
2019-05-02T17:53:24.621Z,15.03
2019-05-02T17:56:26.257Z,15.30
2019-05-02T17:59:33.015Z,15.60
2019-05-02T18:02:31.702Z,15.98
2019-05-02T18:05:35.661Z,15.80
2019-05-02T18:08:37.536Z,15.03
2019-05-02T18:11:38.925Z,15.20
2019-05-02T18:14:42.186Z,16.57
2019-05-02T18:17:43.877Z,15.20
2019-05-02T18:20:46.634Z,15.32
2019-05-02T18:23:47.925Z,16.87
2019-05-02T18:26:51.578Z,16.57
2019-05-02T18:29:53.237Z,19.62
2019-05-02T18:32:57.773Z,20.08
2019-05-02T18:35:58.109Z,21.62
2019-05-02T18:39:01.610Z,22.55
2019-05-02T18:42:03.414Z,22.27
2019-05-02T18:45:07.966Z,21.90
2019-05-02T18:48:09.435Z,22.32
2019-05-02T18:51:10.907Z,21.50
2019-05-02T18:54:12.454Z,22.55
2019-05-02T18:57:17.189Z,21.45
2019-05-02T19:00:17.426Z,22.00
2019-05-02T19:03:18.859Z,22.58
2019-05-02T19:06:21.889Z,22.65
2019-05-02T19:09:29.830Z,25.75
2019-05-02T19:12:26.747Z,23.80
2019-05-02T19:15:28.085Z,23.12
2019-05-02T19:18:29.585Z,23.92
2019-05-02T19:21:34.393Z,22.90
2019-05-02T19:24:36.503Z,23.50
2019-05-02T19:27:52.152Z,23.47
2019-05-02T19:30:57.389Z,22.85
2019-05-02T19:34:00.044Z,23.52
2019-05-02T19:37:02.975Z,24.37
2019-05-02T19:40:07.038Z,23.95
2019-05-02T19:43:08.518Z,27.13
2019-05-02T19:46:11.986Z,29.10
2019-05-02T19:49:16.208Z,32.30
2019-05-02T19:52:17.198Z,31.77
2019-05-02T19:55:20.080Z,33.58
2019-05-02T19:58:22.313Z,30.40
2019-05-02T20:01:26.540Z,30.30
2019-05-02T20:04:26.959Z,29.63
2019-05-02T20:07:28.430Z,28.98
2019-05-02T20:10:32.303Z,28.57
2019-05-02T20:13:35.253Z,29.20
2019-05-02T20:16:45.694Z,30.43
2019-05-02T20:19:47.316Z,31.05
2019-05-02T20:22:49.623Z,34.08
2019-05-02T20:25:52.427Z,39.85
2019-05-02T20:28:53.997Z,42.05
2019-05-02T20:31:55.483Z,43.80
2019-05-02T20:34:57.600Z,45.43
2019-05-02T20:37:59.340Z,46.18
2019-05-02T20:41:02.757Z,43.13
2019-05-02T20:44:04.598Z,37.53
2019-05-02T20:47:06.054Z,36.63
2019-05-02T20:50:07.583Z,34.90
2019-05-02T20:53:12.006Z,34.40
2019-05-02T20:56:12.655Z,34.65
2019-05-02T20:59:14.095Z,33.65
2019-05-02T21:02:15.542Z,33.30
2019-05-02T21:05:19.714Z,35.52
2019-05-02T21:08:38.218Z,34.92
2019-05-02T21:11:43.216Z,33.85
2019-05-02T21:14:44.729Z,33.88
2019-05-02T21:17:46.353Z,34.92
2019-05-02T21:20:48.318Z,34.98
2019-05-02T21:23:52.789Z,36.08
2019-05-02T21:26:53.849Z,35.78
2019-05-02T21:29:55.121Z,37.17
2019-05-02T21:32:56.886Z,35.80
2019-05-02T21:35:58.281Z,37.03
2019-05-02T21:38:59.822Z,35.75
2019-05-02T21:42:02.333Z,35.95
2019-05-02T21:45:04.818Z,33.90
2019-05-02T21:48:06.226Z,37.00
2019-05-02T21:51:18.905Z,35.50
2019-05-02T21:54:38.717Z,37.03
2019-05-02T21:57:40.553Z,36.20
2019-05-02T22:00:46.481Z,34.58
2019-05-02T22:03:47.877Z,34.73
2019-05-02T22:06:49.350Z,37.73
2019-05-02T22:09:52.408Z,37.53
2019-05-02T22:12:54.066Z,37.28
2019-05-02T22:15:55.384Z,35.70
2019-05-02T22:18:57.276Z,34.18
2019-05-02T22:21:58.566Z,34.75
2019-05-02T22:25:02.240Z,35.30
2019-05-02T22:28:03.648Z,36.05
2019-05-02T22:31:05.113Z,36.28
2019-05-02T22:34:06.525Z,35.55
2019-05-02T22:37:09.930Z,36.13
2019-05-02T22:40:16.101Z,34.83
2019-05-02T22:43:17.573Z,34.10
2019-05-02T22:46:37.693Z,32.90
2019-05-02T22:49:39.186Z,32.60
2019-05-02T22:52:41.622Z,33.67
2019-05-02T22:55:44.839Z,33.65
2019-05-02T22:58:46.108Z,32.23
2019-05-02T23:01:47.779Z,35.00
2019-05-02T23:04:49.174Z,38.00
2019-05-02T23:07:52.643Z,36.85
2019-05-02T23:10:53.829Z,38.10
2019-05-02T23:13:55.432Z,36.38
2019-05-02T23:16:56.733Z,40.90
2019-05-02T23:19:58.135Z,42.10
2019-05-02T23:22:59.525Z,39.42
2019-05-02T23:26:03.137Z,40.20
2019-05-02T23:29:07.005Z,43.20
2019-05-02T23:32:08.573Z,43.90
2019-05-02T23:35:09.887Z,46.95
2019-05-02T23:38:12.596Z,45.52
2019-05-02T23:41:13.985Z,43.87
2019-05-02T23:44:15.718Z,44.70
2019-05-02T23:47:17.038Z,43.00
2019-05-02T23:50:18.629Z,46.77
2019-05-02T23:53:22.008Z,44.70
2019-05-02T23:56:23.176Z,43.95
2019-05-02T23:59:24.568Z,46.70
